Time;durP1;ratioP1;P1;durP2;ratioP2;P2;SDS_P1;SDS_P2;PMS_P1;PMS_P2;Temp;Humidity;BMP_temperature;BMP_pressure;BME280_temperature;BME280_humidity;BME280_pressure;Samples;Min_cycle;Max_cycle;Signal;HPM_P1;HPM_P2
2021/01/04 00:00:27;;;;;;;11.63;4.95;;;;;;;2.64;79.69;102046.38;5026728;28;20045;-75
2021/01/04 00:03:12;;;;;;;13.40;5.15;;;;;;;2.63;80.16;102059.41;5030983;28;20502;-75
2021/01/04 00:05:58;;;;;;;15.73;5.95;;;;;;;2.65;79.70;102062.75;5046094;28;20432;-76
2021/01/04 00:09:00;;;;;;;13.25;4.72;;;;;;;2.66;79.92;102054.09;5053253;28;20462;-75
2021/01/04 00:11:39;;;;;;;13.13;5.00;;;;;;;2.69;79.43;102053.97;5049182;28;20068;-75
2021/01/04 00:14:09;;;;;;;9.00;4.28;;;;;;;2.71;79.58;102047.81;5048502;28;20728;-76
2021/01/04 00:17:04;;;;;;;12.32;4.75;;;;;;;2.69;79.57;102046.19;5043240;28;20048;-76
2021/01/04 00:19:48;;;;;;;12.60;4.57;;;;;;;2.68;80.13;102052.28;5017746;28;20057;-75
2021/01/04 00:22:38;;;;;;;11.15;4.35;;;;;;;2.68;79.94;102047.09;5013547;28;20132;-75
2021/01/04 00:25:36;;;;;;;11.93;4.35;;;;;;;2.71;79.60;102044.38;5030223;28;20486;-75
2021/01/04 00:28:18;;;;;;;9.55;4.82;;;;;;;2.72;80.01;102046.91;5035187;28;20071;-75
2021/01/04 00:30:51;;;;;;;10.60;4.75;;;;;;;2.73;79.95;102046.00;5034867;28;20454;-74
2021/01/04 00:33:33;;;;;;;13.18;4.32;;;;;;;2.72;80.45;102044.31;5040011;28;20057;-74
2021/01/04 00:36:02;;;;;;;15.45;4.57;;;;;;;2.71;80.27;102034.88;5031359;28;20033;-76
2021/01/04 00:38:56;;;;;;;11.98;4.78;;;;;;;2.77;80.06;102045.88;5024138;28;20108;-75
2021/01/04 00:41:21;;;;;;;11.98;4.47;;;;;;;2.77;80.07;102048.44;5054704;28;20037;-76
2021/01/04 00:43:51;;;;;;;8.23;4.28;;;;;;;2.71;80.14;102034.00;5045548;28;20083;-76
2021/01/04 00:46:22;;;;;;;7.53;3.97;;;;;;;2.70;79.85;102034.94;5025083;28;20028;-76
2021/01/04 00:49:26;;;;;;;13.23;4.55;;;;;;;2.77;79.68;102032.91;5033309;28;20127;-76
2021/01/04 00:51:58;;;;;;;11.73;4.20;;;;;;;2.80;78.92;102036.22;5031478;28;20076;-77
2021/01/04 00:54:48;;;;;;;10.25;4.15;;;;;;;2.84;79.63;102047.28;5006284;28;20685;-76
2021/01/04 00:57:39;;;;;;;11.13;3.97;;;;;;;2.90;79.12;102050.50;5002376;28;20029;-76
2021/01/04 01:00:22;;;;;;;10.73;4.15;;;;;;;2.91;78.94;102052.16;5032744;28;20087;-77
2021/01/04 01:03:03;;;;;;;11.63;3.88;;;;;;;2.97;78.57;102056.22;5007395;28;20044;-75
2021/01/04 01:05:32;;;;;;;12.73;4.18;;;;;;;2.89;78.98;102061.75;5058203;28;20065;-75
2021/01/04 01:08:08;;;;;;;8.30;3.70;;;;;;;2.84;79.49;102050.72;5047919;28;20142;-75
2021/01/04 01:11:03;;;;;;;11.00;3.90;;;;;;;2.90;78.97;102060.00;5033895;28;20033;-75
2021/01/04 01:13:49;;;;;;;9.23;3.67;;;;;;;2.95;78.62;102058.06;5038029;28;20056;-76
2021/01/04 01:16:53;;;;;;;8.77;3.33;;;;;;;2.92;78.92;102055.59;5032326;28;20048;-78
2021/01/04 01:19:51;;;;;;;10.05;3.60;;;;;;;2.96;78.71;102056.28;5022077;28;20131;-76
2021/01/04 01:22:26;;;;;;;9.88;4.07;;;;;;;2.90;78.87;102058.25;5043835;28;20041;-77
2021/01/04 01:24:52;;;;;;;8.77;3.22;;;;;;;2.92;77.98;102058.19;5041495;28;20090;-77
2021/01/04 01:27:45;;;;;;;7.43;3.22;;;;;;;3.03;77.27;102063.78;5064817;28;20446;-77
2021/01/04 01:30:33;;;;;;;10.60;3.17;;;;;;;3.01;77.87;102069.91;5039258;28;20033;-79
2021/01/04 01:33:33;;;;;;;8.75;3.08;;;;;;;3.03;77.04;102060.31;5053282;28;20384;-77
2021/01/04 01:36:05;;;;;;;7.68;2.70;;;;;;;2.99;77.84;102051.00;5031005;28;20104;-78
2021/01/04 01:39:00;;;;;;;8.07;2.90;;;;;;;2.97;77.84;102063.19;5043468;28;20162;-79
2021/01/04 01:41:29;;;;;;;10.55;3.05;;;;;;;2.98;77.05;102072.66;5054797;28;20422;-80
2021/01/04 01:44:21;;;;;;;8.50;3.17;;;;;;;2.98;77.44;102070.91;5044157;28;20045;-78
2021/01/04 01:46:59;;;;;;;6.05;2.70;;;;;;;2.93;77.63;102063.28;5016411;28;20049;-81
2021/01/04 01:49:32;;;;;;;8.52;2.58;;;;;;;2.94;77.29;102061.56;5048313;28;20025;-77
2021/01/04 01:52:16;;;;;;;7.57;2.60;;;;;;;2.92;77.43;102072.00;5064150;28;20033;-77
2021/01/04 01:55:12;;;;;;;6.60;2.72;;;;;;;2.96;77.17;102070.13;5069399;28;20129;-77
2021/01/04 01:58:08;;;;;;;6.63;2.65;;;;;;;3.00;76.43;102070.84;5070742;28;20041;-78
2021/01/04 02:00:58;;;;;;;7.68;2.67;;;;;;;2.93;77.35;102067.66;5011078;28;20479;-77
2021/01/04 02:03:46;;;;;;;8.93;2.80;;;;;;;2.95;77.32;102071.00;5048773;28;20041;-77
2021/01/04 02:06:34;;;;;;;7.57;2.65;;;;;;;2.98;77.17;102070.06;5055226;28;20043;-77
2021/01/04 02:09:11;;;;;;;7.18;2.92;;;;;;;2.99;76.83;102082.94;5042471;28;20048;-77
2021/01/04 02:11:52;;;;;;;6.95;2.80;;;;;;;2.92;76.99;102066.81;5040143;28;20040;-76
2021/01/04 02:15:01;;;;;;;6.47;2.13;;;;;;;3.01;76.84;102062.13;4999967;28;20038;-77
2021/01/04 02:17:42;;;;;;;5.32;2.55;;;;;;;2.90;78.20;102076.41;4972144;28;20420;-76
2021/01/04 02:20:47;;;;;;;8.63;2.67;;;;;;;2.89;77.63;102068.69;4974990;28;20114;-75
2021/01/04 02:23:27;;;;;;;6.38;2.35;;;;;;;2.88;77.73;102072.16;4990569;28;20036;-76
2021/01/04 02:25:57;;;;;;;5.95;2.38;;;;;;;2.89;77.60;102074.69;4994052;28;20050;-78
2021/01/04 02:28:27;;;;;;;5.63;2.55;;;;;;;2.85;77.84;102078.34;5009805;28;20117;-77
2021/01/04 02:30:53;;;;;;;7.28;2.58;;;;;;;2.83;77.94;102072.38;5000042;28;20042;-75
2021/01/04 02:33:21;;;;;;;5.20;2.22;;;;;;;2.81;77.30;102069.00;4993708;28;20551;-77
2021/01/04 02:35:48;;;;;;;4.10;1.63;;;;;;;2.84;77.11;102068.03;4976580;28;20119;-75
2021/01/04 02:38:18;;;;;;;5.97;1.95;;;;;;;2.77;77.47;102077.81;4993364;28;20046;-76
2021/01/04 02:40:44;;;;;;;5.43;2.28;;;;;;;2.78;76.55;102065.69;4986065;28;20047;-78
2021/01/04 02:43:10;;;;;;;5.65;1.98;;;;;;;2.74;77.15;102077.94;4998654;28;20511;-78
2021/01/04 02:45:36;;;;;;;13.50;2.28;;;;;;;2.73;76.78;102063.28;4997602;28;20042;-77
2021/01/04 02:48:17;;;;;;;3.95;1.88;;;;;;;2.68;77.03;102079.03;4982401;28;20464;-78
2021/01/04 02:50:50;;;;;;;7.30;2.00;;;;;;;2.61;77.64;102058.63;4999370;28;20492;-78
2021/01/04 02:53:45;;;;;;;7.28;2.00;;;;;;;2.56;78.09;102063.97;5006928;28;20551;-75
2021/01/04 02:56:29;;;;;;;4.25;1.65;;;;;;;2.53;78.05;102072.72;4975968;28;20057;-77
2021/01/04 02:59:05;;;;;;;3.55;1.75;;;;;;;2.52;78.90;102065.88;5000776;28;20057;-76
2021/01/04 03:01:47;;;;;;;4.65;1.95;;;;;;;2.49;79.69;102063.41;5006993;28;20113;-75
2021/01/04 03:04:15;;;;;;;6.22;2.05;;;;;;;2.42;80.26;102056.78;4984207;28;20041;-76
2021/01/04 03:06:43;;;;;;;9.32;1.88;;;;;;;2.43;80.82;102049.84;4993621;28;20042;-78
2021/01/04 03:09:10;;;;;;;6.25;1.58;;;;;;;2.58;80.39;102059.59;4992646;28;20535;-78
2021/01/04 03:11:39;;;;;;;8.32;1.75;;;;;;;2.49;81.42;102062.56;4993367;28;20062;-77
2021/01/04 03:14:25;;;;;;;7.63;1.90;;;;;;;2.40;81.50;102052.56;4990866;28;20045;-77
2021/01/04 03:17:17;;;;;;;6.40;1.70;;;;;;;2.41;82.41;102072.38;5007164;28;20108;-76
2021/01/04 03:19:46;;;;;;;5.90;1.58;;;;;;;2.36;83.05;102061.38;4992853;28;20053;-77
2021/01/04 03:22:13;;;;;;;3.92;1.88;;;;;;;2.32;82.48;102056.31;4983162;28;20393;-76
2021/01/04 03:24:38;;;;;;;9.40;1.75;;;;;;;2.44;81.74;102064.47;5008374;28;20049;-76
2021/01/04 03:27:15;;;;;;;4.40;1.45;;;;;;;2.40;82.22;102055.16;4984930;28;20100;-75
2021/01/04 03:29:41;;;;;;;4.68;1.38;;;;;;;2.42;81.81;102059.34;5006703;28;20095;-76
2021/01/04 03:32:07;;;;;;;4.10;1.58;;;;;;;2.37;81.62;102055.28;5010768;28;20038;-75
2021/01/04 03:34:32;;;;;;;4.47;1.58;;;;;;;2.39;81.05;102053.47;5010920;28;20504;-75
2021/01/04 03:36:58;;;;;;;3.90;1.35;;;;;;;2.42;80.88;102054.19;4995864;28;20034;-76
2021/01/04 03:39:28;;;;;;;5.82;1.42;;;;;;;2.31;80.90;102044.25;5002293;28;20042;-77
2021/01/04 03:41:59;;;;;;;2.72;1.00;;;;;;;2.37;81.34;102063.03;5009138;28;20649;-76
2021/01/04 03:44:27;;;;;;;4.10;1.50;;;;;;;2.31;81.32;102064.13;4994212;28;20087;-77
2021/01/04 03:46:53;;;;;;;7.75;1.77;;;;;;;2.32;81.37;102060.66;4997261;28;20116;-76
2021/01/04 03:49:18;;;;;;;5.15;1.33;;;;;;;2.31;80.93;102043.41;5007625;28;20468;-76
2021/01/04 03:51:55;;;;;;;5.68;1.30;;;;;;;2.45;80.36;102059.25;5011714;28;20034;-75
2021/01/04 03:54:21;;;;;;;9.20;2.00;;;;;;;2.44;80.30;102061.88;5002360;28;20524;-76
2021/01/04 03:56:47;;;;;;;8.68;1.40;;;;;;;2.39;80.31;102063.81;4991843;28;20038;-76
2021/01/04 03:59:16;;;;;;;5.78;1.33;;;;;;;2.37;80.72;102066.47;4991065;28;20050;-78
2021/01/04 04:01:53;;;;;;;3.58;1.20;;;;;;;2.39;80.13;102064.66;4987959;28;20114;-76
2021/01/04 04:04:20;;;;;;;6.78;1.50;;;;;;;2.31;81.09;102059.78;4971366;28;20050;-77
2021/01/04 04:06:46;;;;;;;4.28;1.30;;;;;;;2.31;81.50;102066.72;4983060;28;20027;-76
2021/01/04 04:09:13;;;;;;;4.03;1.55;;;;;;;2.34;81.07;102058.84;5001482;28;20108;-76
2021/01/04 04:11:39;;;;;;;5.95;1.40;;;;;;;2.36;81.27;102054.44;4994157;28;20568;-77
2021/01/04 04:14:06;;;;;;;3.10;1.10;;;;;;;2.34;81.42;102067.44;5010127;28;20042;-77
2021/01/04 04:16:32;;;;;;;5.90;1.98;;;;;;;2.34;81.47;102064.84;4996490;28;20489;-76
2021/01/04 04:18:57;;;;;;;4.55;1.55;;;;;;;2.28;81.82;102059.06;4973584;28;20053;-76
2021/01/04 04:21:23;;;;;;;5.32;1.05;;;;;;;2.27;81.79;102060.81;5013174;28;20481;-76
2021/01/04 04:23:48;;;;;;;4.10;1.13;;;;;;;2.34;81.84;102062.25;4991640;28;20038;-76
2021/01/04 04:26:25;;;;;;;7.00;1.30;;;;;;;2.29;82.06;102059.00;5007146;28;20041;-77
2021/01/04 04:28:50;;;;;;;7.38;1.45;;;;;;;2.31;82.39;102053.75;4981605;28;20079;-77
2021/01/04 04:31:16;;;;;;;4.38;0.98;;;;;;;2.31;82.42;102061.53;4993069;28;20050;-78
2021/01/04 04:33:42;;;;;;;6.18;1.30;;;;;;;2.36;82.93;102058.78;5005752;28;20033;-76
2021/01/04 04:36:10;;;;;;;4.50;1.27;;;;;;;2.44;82.45;102062.72;5012401;28;20069;-77
2021/01/04 04:38:36;;;;;;;5.60;1.30;;;;;;;2.41;82.73;102070.63;4999345;28;20057;-77
2021/01/04 04:41:03;;;;;;;4.30;1.20;;;;;;;2.42;82.49;102064.53;4987770;28;20042;-76
2021/01/04 04:43:35;;;;;;;5.38;0.93;;;;;;;2.38;83.21;102059.56;5009029;28;20034;-78
2021/01/04 04:46:06;;;;;;;3.50;0.80;;;;;;;2.49;82.19;102063.41;4986326;28;20492;-77
2021/01/04 04:48:47;;;;;;;3.33;0.82;;;;;;;2.48;82.13;102060.84;4996408;28;20038;-77
2021/01/04 04:51:43;;;;;;;4.00;1.50;;;;;;;2.48;82.87;102066.88;5003240;28;20389;-76
2021/01/04 04:54:39;;;;;;;4.65;1.20;;;;;;;2.54;82.22;102063.19;5018588;28;20034;-77
2021/01/04 04:57:32;;;;;;;5.10;1.10;;;;;;;2.52;82.71;102070.19;4996570;28;20026;-76
2021/01/04 05:00:25;;;;;;;4.20;0.90;;;;;;;2.56;82.43;102076.09;5013233;28;20141;-78
2021/01/04 05:02:58;;;;;;;2.45;0.77;;;;;;;2.62;81.80;102076.69;5009998;28;20050;-77
2021/01/04 05:05:31;;;;;;;2.72;0.90;;;;;;;2.60;82.13;102072.47;4991860;28;20046;-76
2021/01/04 05:08:14;;;;;;;3.15;0.90;;;;;;;2.50;82.81;102070.25;4981330;28;20497;-75
2021/01/04 05:10:44;;;;;;;3.00;0.73;;;;;;;2.59;82.51;102068.22;4996650;28;20065;-78
2021/01/04 05:13:26;;;;;;;2.25;0.90;;;;;;;2.61;82.33;102068.97;5001236;28;20029;-76
2021/01/04 05:16:09;;;;;;;3.25;1.15;;;;;;;2.62;82.41;102066.34;5017858;28;20061;-77
2021/01/04 05:18:47;;;;;;;;;;;;;;;2.47;83.36;102067.78;5000658;28;20035;-78
2021/01/04 05:21:31;;;;;;;4.28;1.23;;;;;;;2.45;83.83;102076.50;5003013;28;20339;-77
2021/01/04 05:24:34;;;;;;;4.50;0.80;;;;;;;2.53;83.03;102075.31;4990289;28;20080;-77
2021/01/04 05:27:19;;;;;;;5.40;1.23;;;;;;;2.56;82.99;102082.09;4989806;28;20416;-78
2021/01/04 05:30:15;;;;;;;3.03;0.85;;;;;;;2.54;83.47;102070.97;4994209;28;20038;-79
2021/01/04 05:33:01;;;;;;;5.10;1.08;;;;;;;2.52;83.23;102076.22;4988553;28;20548;-78
2021/01/04 05:35:27;;;;;;;5.28;1.73;;;;;;;2.46;84.65;102079.03;4986927;28;20061;-77
2021/01/04 05:38:21;;;;;;;4.60;0.90;;;;;;;2.44;83.64;102072.25;5006502;28;20138;-77
2021/01/04 05:41:09;;;;;;;;;;;;;;;2.43;83.65;102078.31;4995811;28;20034;-77
2021/01/04 05:43:55;;;;;;;3.63;1.17;;;;;;;2.40;83.93;102079.31;5001213;28;20396;-77
2021/01/04 05:46:42;;;;;;;2.50;0.63;;;;;;;2.37;83.98;102074.22;4995643;28;20042;-77
2021/01/04 05:49:25;;;;;;;2.60;1.00;;;;;;;2.26;84.07;102066.91;4993594;28;20038;-77
2021/01/04 05:51:51;;;;;;;2.83;0.60;;;;;;;2.23;84.27;102079.97;4992514;28;20034;-77
2021/01/04 05:54:29;;;;;;;2.35;0.80;;;;;;;2.27;84.11;102075.50;4992050;28;20045;-77
2021/01/04 05:57:10;;;;;;;4.30;0.88;;;;;;;2.09;84.95;102079.63;5010033;28;20035;-79
2021/01/04 05:59:52;;;;;;;6.30;1.38;;;;;;;2.12;84.82;102085.53;4988137;28;20490;-78
2021/01/04 06:02:35;;;;;;;1.52;0.80;;;;;;;2.13;85.08;102086.41;4987670;28;20037;-78
2021/01/04 06:05:14;;;;;;;4.68;0.80;;;;;;;2.13;85.28;102089.00;5002346;28;20092;-77
2021/01/04 06:07:42;;;;;;;4.70;0.82;;;;;;;2.13;85.53;102087.25;5008531;28;20046;-77
2021/01/04 06:10:17;;;;;;;4.78;0.82;;;;;;;2.07;85.77;102090.06;4992185;28;20377;-77
2021/01/04 06:12:47;;;;;;;2.45;1.00;;;;;;;2.03;86.59;102087.66;4954770;28;20031;-77
2021/01/04 06:15:12;;;;;;;2.88;0.82;;;;;;;2.07;86.46;102094.38;5005838;28;20030;-78
2021/01/04 06:17:47;;;;;;;3.20;0.68;;;;;;;2.08;86.29;102086.56;4971830;28;20035;-77
2021/01/04 06:20:24;;;;;;;2.38;0.73;;;;;;;2.09;86.63;102090.00;4985303;28;20054;-76
2021/01/04 06:22:51;;;;;;;4.75;1.10;;;;;;;2.11;87.06;102088.19;4993868;28;20046;-77
2021/01/04 06:25:18;;;;;;;3.05;0.90;;;;;;;2.12;87.26;102087.28;4991637;28;20034;-77
2021/01/04 06:27:46;;;;;;;2.78;0.77;;;;;;;2.04;87.63;102090.19;5000059;28;20622;-76
2021/01/04 06:30:28;;;;;;;7.15;1.08;;;;;;;2.06;87.88;102082.38;4990582;28;20130;-77
2021/01/04 06:33:01;;;;;;;6.38;0.85;;;;;;;2.08;87.38;102090.91;4991681;28;20168;-75
2021/01/04 06:35:30;;;;;;;2.78;0.90;;;;;;;2.12;87.41;102097.66;4976098;28;20038;-77
2021/01/04 06:38:11;;;;;;;3.80;1.10;;;;;;;2.05;87.90;102094.44;4958756;28;20038;-77
2021/01/04 06:40:41;;;;;;;4.90;1.10;;;;;;;2.08;87.55;102091.75;4979179;28;20042;-76
2021/01/04 06:43:27;;;;;;;4.50;1.33;;;;;;;2.12;87.36;102082.13;4988541;28;20034;-76
2021/01/04 06:46:18;;;;;;;5.28;1.23;;;;;;;2.15;87.44;102092.38;4974319;28;20041;-77
2021/01/04 06:48:51;;;;;;;2.75;0.93;;;;;;;2.13;87.20;102096.75;4991442;28;20050;-79
2021/01/04 06:51:32;;;;;;;4.15;1.08;;;;;;;2.17;86.78;102094.88;4966132;28;20423;-79
2021/01/04 06:54:03;;;;;;;5.28;0.98;;;;;;;2.19;86.45;102091.34;5002314;28;20034;-78
2021/01/04 06:56:46;;;;;;;6.53;1.05;;;;;;;2.20;86.81;102102.53;5001308;28;20476;-78
2021/01/04 06:59:27;;;;;;;;;;;;;;;2.20;87.16;102100.78;4990042;28;20093;-78
2021/01/04 07:02:20;;;;;;;4.88;1.10;;;;;;;2.23;86.61;102107.59;5004904;28;19918;-77
2021/01/04 07:04:49;;;;;;;;;;;;;;;2.19;87.19;102108.63;5003687;28;20054;-77
2021/01/04 07:07:38;;;;;;;4.22;1.23;;;;;;;2.22;87.16;102109.31;5002208;28;20007;-78
2021/01/04 07:10:26;;;;;;;5.75;1.10;;;;;;;2.19;87.63;102113.81;4989867;28;20027;-78
2021/01/04 07:14:38;;;;;;;5.78;1.48;;;;;;;2.19;87.51;102106.88;5073716;27;20338;-77
2021/01/04 07:17:24;;;;;;;7.03;1.17;;;;;;;2.23;87.72;102116.22;5067134;28;20120;-76
2021/01/04 07:20:02;;;;;;;6.82;1.75;;;;;;;2.10;88.46;102113.25;5026468;28;20055;-77
2021/01/04 07:22:46;;;;;;;6.68;1.40;;;;;;;2.03;89.41;102118.69;5028741;28;20037;-78
2021/01/04 07:25:27;;;;;;;3.42;1.50;;;;;;;1.97;89.44;102124.13;5028262;28;20045;-77
2021/01/04 07:28:10;;;;;;;7.78;1.80;;;;;;;1.94;89.54;102132.81;5045507;28;20042;-76
2021/01/04 07:30:56;;;;;;;6.13;1.75;;;;;;;1.87;89.67;102131.38;5020530;28;20444;-77
2021/01/04 07:33:36;;;;;;;2.67;1.30;;;;;;;1.86;89.78;102134.84;5022811;28;20061;-79
2021/01/04 07:36:22;;;;;;;3.17;1.23;;;;;;;1.80;89.93;102135.91;5031272;28;20049;-78
2021/01/04 07:39:16;;;;;;;7.57;1.58;;;;;;;1.83;89.96;102141.00;5031686;28;20033;-78
2021/01/04 07:42:19;;;;;;;4.35;1.33;;;;;;;1.77;89.65;102137.78;5040508;28;20069;-77
2021/01/04 07:45:10;;;;;;;4.50;1.40;;;;;;;1.64;90.02;102134.78;5014008;28;20037;-79
2021/01/04 07:47:44;;;;;;;4.38;1.27;;;;;;;1.59;89.91;102139.28;5038822;28;20045;-76
2021/01/04 07:50:48;;;;;;;2.75;1.20;;;;;;;1.52;90.27;102136.06;5027846;28;20052;-78
2021/01/04 07:53:34;;;;;;;3.95;1.50;;;;;;;1.48;90.31;102132.72;5031085;28;20041;-78
2021/01/04 07:56:30;;;;;;;4.40;1.20;;;;;;;1.46;90.52;102134.53;5048968;28;20041;-79
2021/01/04 07:59:23;;;;;;;3.85;1.50;;;;;;;1.40;90.41;102127.00;5015630;28;20566;-77
2021/01/04 08:02:19;;;;;;;1.60;1.20;;;;;;;1.38;90.39;102136.56;5010622;28;20405;-76
2021/01/04 08:05:16;;;;;;;1.98;1.20;;;;;;;1.39;90.11;102140.81;5047175;28;20041;-77
2021/01/04 08:07:44;;;;;;;5.28;1.25;;;;;;;1.31;90.59;102140.25;5034398;28;20033;-76
2021/01/04 08:10:25;;;;;;;4.35;1.27;;;;;;;1.34;90.90;102147.91;5030483;28;20052;-76
2021/01/04 08:13:02;;;;;;;3.90;1.40;;;;;;;1.32;90.72;102141.94;5047196;28;20029;-77
2021/01/04 08:15:41;;;;;;;2.75;1.38;;;;;;;1.31;91.17;102145.41;5048395;28;20120;-76
2021/01/04 08:18:09;;;;;;;2.20;1.23;;;;;;;1.28;90.99;102151.53;5048877;28;20033;-75
2021/01/04 08:20:37;;;;;;;2.08;1.35;;;;;;;1.29;90.83;102147.22;5030636;28;20072;-77
2021/01/04 08:23:30;;;;;;;3.65;1.75;;;;;;;1.22;90.77;102150.88;5019630;28;20083;-76
2021/01/04 08:26:14;;;;;;;2.03;1.60;;;;;;;1.25;91.28;102151.63;5042460;28;20067;-76
2021/01/04 08:28:52;;;;;;;6.10;1.52;;;;;;;1.31;90.69;102153.16;5029981;28;20442;-77
2021/01/04 08:31:40;;;;;;;2.60;1.40;;;;;;;1.23;90.62;102145.66;5029058;28;20384;-77
2021/01/04 08:34:10;;;;;;;1.85;1.30;;;;;;;1.28;90.55;102153.25;5033773;28;20462;-77
2021/01/04 08:36:41;;;;;;;4.15;1.80;;;;;;;1.19;90.95;102148.41;5009467;28;20049;-77
2021/01/04 08:39:12;;;;;;;3.22;1.73;;;;;;;1.16;91.33;102149.34;5035763;28;20396;-78
2021/01/04 08:41:40;;;;;;;3.15;1.58;;;;;;;1.17;90.88;102145.88;5033381;28;20045;-79
2021/01/04 08:44:18;;;;;;;1.52;1.42;;;;;;;1.22;91.25;102156.91;5035161;28;20044;-77
2021/01/04 08:46:47;;;;;;;2.53;1.40;;;;;;;1.19;91.06;102159.59;5035238;28;20112;-77
2021/01/04 08:49:23;;;;;;;3.42;1.15;;;;;;;1.20;90.89;102152.69;5020149;28;20052;-77
2021/01/04 08:51:51;;;;;;;2.92;1.30;;;;;;;1.24;91.01;102156.84;5010439;28;20053;-77
2021/01/04 08:54:28;;;;;;;1.85;1.35;;;;;;;1.24;90.88;102159.44;5012915;28;20057;-77
2021/01/04 08:57:02;;;;;;;1.98;1.38;;;;;;;1.23;91.30;102155.19;5035238;28;20065;-78
2021/01/04 08:59:32;;;;;;;4.50;1.50;;;;;;;1.14;91.55;102161.47;5036835;28;20073;-78
2021/01/04 09:02:06;;;;;;;3.90;1.38;;;;;;;1.11;91.34;102159.00;5020859;28;20068;-78
2021/01/04 09:04:35;;;;;;;3.03;1.38;;;;;;;1.22;90.94;102150.88;5037204;28;20025;-77
2021/01/04 09:07:21;;;;;;;1.88;1.35;;;;;;;1.30;91.16;102147.16;5020781;28;20054;-78
2021/01/04 09:10:15;;;;;;;5.00;1.70;;;;;;;1.27;90.88;102161.94;4995795;28;20026;-77
2021/01/04 09:12:51;;;;;;;3.50;1.45;;;;;;;1.22;91.29;102154.31;5008894;28;20038;-78
2021/01/04 09:15:20;;;;;;;3.58;1.70;;;;;;;1.22;91.98;102150.88;4990175;28;20593;-78
2021/01/04 09:17:50;;;;;;;5.07;1.80;;;;;;;1.22;91.82;102159.47;4990209;28;20097;-79
2021/01/04 09:20:23;;;;;;;4.28;1.90;;;;;;;1.12;92.56;102158.94;4974192;28;20053;-76
2021/01/04 09:23:01;;;;;;;;;;;;;;;1.14;92.70;102170.06;4998474;28;20045;-76
2021/01/04 09:25:44;;;;;;;5.40;1.90;;;;;;;1.15;93.76;102158.03;4993014;28;19914;-77
2021/01/04 09:28:10;;;;;;;5.25;2.08;;;;;;;1.13;92.94;102162.38;5005043;28;20044;-77
2021/01/04 09:30:35;;;;;;;7.90;2.30;;;;;;;1.09;92.89;102164.22;4998831;28;20097;-77
2021/01/04 09:33:08;;;;;;;5.57;2.30;;;;;;;1.13;93.15;102165.81;5008937;28;20105;-77
2021/01/04 09:35:33;;;;;;;4.90;2.50;;;;;;;1.11;94.14;102156.41;4999166;28;20034;-78
2021/01/04 09:38:28;;;;;;;5.53;2.53;;;;;;;1.21;93.05;102162.13;5004831;28;20088;-77
2021/01/04 09:40:59;;;;;;;6.40;2.05;;;;;;;1.17;93.16;102156.22;4978330;28;20116;-77
2021/01/04 09:43:29;;;;;;;4.60;2.10;;;;;;;1.31;92.66;102160.91;4972731;28;20489;-77
2021/01/04 09:46:14;;;;;;;8.43;2.30;;;;;;;1.33;93.17;102156.53;5009578;28;20033;-77
2021/01/04 09:48:47;;;;;;;5.70;2.22;;;;;;;1.35;93.11;102158.16;5013599;28;20067;-77
2021/01/04 09:51:18;;;;;;;4.13;2.22;;;;;;;1.34;93.38;102155.66;5008146;28;20034;-76
2021/01/04 09:53:54;;;;;;;8.27;1.85;;;;;;;1.38;92.31;102159.00;4975601;28;20041;-76
2021/01/04 09:56:28;;;;;;;5.15;2.47;;;;;;;1.31;92.80;102164.34;4960063;28;20428;-77
2021/01/04 09:59:01;;;;;;;3.88;1.52;;;;;;;1.36;92.88;102164.19;4991464;28;20049;-77
2021/01/04 10:01:30;;;;;;;5.13;1.88;;;;;;;1.35;93.56;102162.50;4985488;28;20405;-77
2021/01/04 10:03:59;;;;;;;5.25;1.70;;;;;;;1.45;91.79;102163.03;4995766;28;20023;-78
2021/01/04 10:06:32;;;;;;;7.45;1.92;;;;;;;1.47;92.38;102149.16;4992595;28;20038;-78
2021/01/04 10:08:57;;;;;;;3.40;1.98;;;;;;;1.50;93.05;102156.78;4993074;28;20044;-79
2021/01/04 10:11:23;;;;;;;4.25;1.85;;;;;;;1.49;92.30;102144.78;4993095;28;20121;-77
2021/01/04 10:13:50;;;;;;;3.63;1.80;;;;;;;1.48;92.63;102155.16;4992469;28;20113;-79
2021/01/04 10:16:24;;;;;;;6.70;2.45;;;;;;;1.56;93.86;102155.75;4991952;28;20037;-79
2021/01/04 10:19:17;;;;;;;6.20;2.03;;;;;;;1.44;93.50;102154.44;4993028;28;20041;-80
2021/01/04 10:21:43;;;;;;;4.53;1.88;;;;;;;1.46;93.63;102159.56;4991871;28;20121;-77
2021/01/04 10:24:15;;;;;;;5.38;1.80;;;;;;;1.48;93.02;102147.41;4991520;28;20176;-77
2021/01/04 10:26:43;;;;;;;2.25;1.77;;;;;;;1.51;92.62;102152.50;4992156;28;20041;-77
2021/01/04 10:29:13;;;;;;;5.70;2.08;;;;;;;1.46;93.26;102150.03;5007577;28;20026;-77
2021/01/04 10:31:39;;;;;;;7.32;1.80;;;;;;;1.44;92.99;102145.84;5006372;28;20026;-78
2021/01/04 10:34:11;;;;;;;2.67;1.63;;;;;;;1.51;92.92;102161.09;4995205;28;20036;-78
2021/01/04 10:36:39;;;;;;;1.83;1.35;;;;;;;1.49;92.16;102144.78;5001804;28;20197;-78
2021/01/04 10:39:20;;;;;;;3.78;1.40;;;;;;;1.51;92.58;102139.56;5007624;28;20109;-78
2021/01/04 10:41:47;;;;;;;2.38;1.40;;;;;;;1.48;92.52;102137.91;5007546;28;20030;-78
2021/01/04 10:44:23;;;;;;;5.15;1.80;;;;;;;1.50;92.13;102132.69;4991379;28;20026;-78
2021/01/04 10:47:17;;;;;;;6.10;1.60;;;;;;;1.50;92.90;102120.59;4990757;28;20041;-75
2021/01/04 10:49:43;;;;;;;5.03;1.42;;;;;;;1.63;92.22;102121.00;4992004;28;20027;-78
2021/01/04 10:52:19;;;;;;;8.95;1.88;;;;;;;1.61;92.43;102117.63;5006416;28;20065;-77
2021/01/04 10:54:45;;;;;;;4.78;1.60;;;;;;;1.70;91.54;102124.22;4990921;28;20030;-77
2021/01/04 10:57:38;;;;;;;5.03;1.70;;;;;;;1.72;91.81;102118.09;4990985;28;20781;-76
2021/01/04 11:00:17;;;;;;;5.63;1.58;;;;;;;1.81;91.54;102118.66;4999357;28;20045;-77
2021/01/04 11:02:50;;;;;;;3.05;1.65;;;;;;;1.82;91.69;102112.59;4990966;28;20027;-78
2021/01/04 11:05:19;;;;;;;2.47;1.30;;;;;;;1.88;90.81;102113.19;4972688;28;20047;-78
2021/01/04 11:07:45;;;;;;;2.88;1.25;;;;;;;1.84;91.98;102110.78;4974350;28;20058;-77
2021/01/04 11:10:26;;;;;;;5.75;1.70;;;;;;;1.82;91.67;102110.00;4989533;28;20100;-77
2021/01/04 11:12:58;;;;;;;3.50;1.33;;;;;;;1.86;91.61;102103.81;5009780;28;20038;-77
2021/01/04 11:15:34;;;;;;;7.13;1.65;;;;;;;1.74;92.49;102105.94;4974777;28;20038;-77
2021/01/04 11:18:10;;;;;;;4.28;1.50;;;;;;;1.72;92.20;102104.31;4988688;28;20121;-78
2021/01/04 11:20:37;;;;;;;5.97;1.88;;;;;;;1.65;93.53;102101.09;4996906;28;20044;-77
2021/01/04 11:23:06;;;;;;;3.80;1.50;;;;;;;1.74;92.81;102103.34;5011488;28;20037;-76
2021/01/04 11:25:31;;;;;;;6.03;1.63;;;;;;;1.80;93.66;102101.44;4997448;28;20421;-77
2021/01/04 11:27:57;;;;;;;4.97;1.73;;;;;;;1.75;92.61;102092.13;4990361;28;20050;-77
2021/01/04 11:30:23;;;;;;;5.70;1.55;;;;;;;1.86;92.64;102101.22;4990312;28;20034;-78
2021/01/04 11:32:48;;;;;;;2.97;1.25;;;;;;;1.86;93.13;102090.88;4991092;28;20113;-75
2021/01/04 11:35:14;;;;;;;7.20;1.52;;;;;;;1.75;93.49;102083.50;4990615;28;20441;-77
2021/01/04 11:37:40;;;;;;;3.50;1.70;;;;;;;1.72;93.87;102081.88;4989976;28;20030;-78
2021/01/04 11:40:06;;;;;;;3.70;1.40;;;;;;;1.75;92.91;102086.09;4980136;28;20121;-78
2021/01/04 11:42:32;;;;;;;2.55;1.30;;;;;;;1.68;93.83;102069.97;5010614;28;20033;-79
2021/01/04 11:44:58;;;;;;;4.47;1.27;;;;;;;1.70;93.41;102067.31;5027444;28;20046;-78
2021/01/04 11:47:24;;;;;;;3.03;1.75;;;;;;;1.75;94.20;102074.00;4976890;28;20046;-78
2021/01/04 11:49:49;;;;;;;3.50;1.35;;;;;;;1.82;94.28;102082.38;4976382;28;20034;-78
2021/01/04 11:52:15;;;;;;;6.05;1.50;;;;;;;1.74;92.82;102071.47;4992543;28;20041;-78
2021/01/04 11:54:44;;;;;;;6.13;2.10;;;;;;;1.77;92.53;102073.94;5008340;28;20679;-77
2021/01/04 11:57:11;;;;;;;3.78;1.60;;;;;;;1.78;93.73;102057.53;4993380;28;20040;-77
2021/01/04 11:59:36;;;;;;;3.85;1.80;;;;;;;1.84;94.51;102062.47;4988820;28;20504;-77
2021/01/04 12:02:03;;;;;;;3.75;1.50;;;;;;;1.88;92.79;102066.59;5017686;28;20042;-77
2021/01/04 12:04:29;;;;;;;2.22;1.30;;;;;;;1.89;93.43;102067.47;4994473;28;20408;-78
2021/01/04 12:06:54;;;;;;;4.82;1.05;;;;;;;1.87;93.28;102064.94;4993502;28;20042;-78
2021/01/04 12:09:20;;;;;;;4.18;1.08;;;;;;;1.84;93.24;102067.63;5010772;28;20125;-78
2021/01/04 12:11:49;;;;;;;5.80;1.17;;;;;;;1.78;93.48;102059.28;4990700;28;20556;-76
2021/01/04 12:14:16;;;;;;;2.20;0.73;;;;;;;1.76;92.06;102061.91;5002540;28;20030;-76
2021/01/04 12:16:42;;;;;;;7.88;0.90;;;;;;;1.71;92.90;102051.75;4983148;28;20036;-76
2021/01/04 12:19:08;;;;;;;2.25;0.80;;;;;;;1.79;93.21;102061.81;4993735;28;20042;-77